Meridian, California
Current Conditions -  °F | °C
As of 5:53 PM on Wednesday 22 Oct 2014 (Local Time) from KMYV Reporting Station
Clear Clear  
Wind Chill: 72°   Ceiling: Unl
Heat Index: 72°   Visibility: 10mi
Dew Point: 43°   Wind: 5mph
Humidity: 35%   Direction: 160°SSE
Pressure: 29.99"   Gusts: NA
Location:  39.14°N, 121.92°W
Report Text: KMYV 230053Z AUTO 16004KT 10SM CLR 22/06 A2999 RMK AO2 SLP158 T02220061
Loading
Personal Weather Stations






























Interactive Weather Map
Tropical Storm Tracking
New forecast layout! Learn more

10-Day Weather Forecast

Advertisements
Track Severe Weather on mobile